KACT/ACT METAR and TAF weather

Enter ICAO airport designator
Station Type Date Time Source
KACT METAR 2020/01/19 22:51 UTC NOAA

KACT 192251Z 03010KT 10SM CLR 12/M05 A3048 RMK AO2 SLP322 T01171050


Station Type Date Time Source
KACT Decoded METAR 2020/01/19 22:51 UTC NOAA

WACO REGIONAL AIRPORT, TX, United States (KACT) 31-36N 97-13W 151M
Jan 19, 2020 - 05:51 PM EST / 2020.01.19 2251 UTC
Wind: from the NNE (030 degrees) at 12 MPH (10 KT):0
Visibility: 10 mile(s):0
Sky conditions: clear
Temperature: 53.1 F (11.7 C)
Dew Point: 23.0 F (-5.0 C)
Relative Humidity: 30%
Pressure (altimeter): 30.48 in. Hg (1032 hPa)
ob: KACT 192251Z 03010KT 10SM CLR 12/M05 A3048 RMK AO2 SLP322 T01171050
cycle: 23

Station Type Date Time Source
KACT TAF 2020/01/19 21:03 UTC NOAA

TAF
AMD KACT 192100Z 1921/2018 03010KT P6SM FEW250
FM200000 35007KT P6SM FEW250
FM201700 06004KT P6SM SKC

Example: see airport list